createdAt,value
2018-11-26T00:00:03.331Z,74.12
2018-11-26T00:02:30.662Z,73.76
2018-11-26T00:04:57.954Z,74.07
2018-11-26T00:07:25.167Z,74.08
2018-11-26T00:09:56.990Z,74.32
2018-11-26T00:12:24.205Z,74.29
2018-11-26T00:14:51.413Z,74.00
2018-11-26T00:17:18.749Z,73.60
2018-11-26T00:19:46.003Z,73.84
2018-11-26T00:22:13.213Z,74.15
2018-11-26T00:24:40.467Z,73.72
2018-11-26T00:27:07.719Z,73.80
2018-11-26T00:29:34.971Z,73.95
2018-11-26T00:32:02.176Z,73.95
2018-11-26T00:34:29.443Z,73.98
2018-11-26T00:36:56.637Z,73.82
2018-11-26T00:39:23.880Z,74.29
2018-11-26T00:41:51.162Z,73.87
2018-11-26T00:44:18.400Z,73.70
2018-11-26T00:46:45.606Z,73.93
2018-11-26T00:49:12.884Z,74.07
2018-11-26T00:51:40.139Z,74.06
2018-11-26T00:54:07.709Z,74.02
2018-11-26T00:56:34.863Z,74.28
2018-11-26T00:59:02.016Z,74.34
2018-11-26T01:01:29.308Z,74.54
2018-11-26T01:03:56.502Z,74.49
2018-11-26T01:06:23.735Z,75.04
2018-11-26T01:08:50.922Z,74.98
2018-11-26T01:11:18.076Z,75.00
2018-11-26T01:13:45.309Z,75.53
2018-11-26T01:16:12.604Z,75.68
2018-11-26T01:18:39.931Z,75.98
2018-11-26T01:21:07.125Z,76.42
2018-11-26T01:23:34.347Z,76.73
2018-11-26T01:26:01.572Z,76.75
2018-11-26T01:28:28.733Z,76.31
2018-11-26T01:30:55.928Z,76.08
2018-11-26T01:33:23.150Z,76.44
2018-11-26T01:35:50.396Z,76.47
2018-11-26T01:38:17.635Z,76.01
2018-11-26T01:40:47.781Z,76.13
2018-11-26T01:43:14.959Z,76.44
2018-11-26T01:45:42.126Z,76.19
2018-11-26T01:48:09.401Z,76.89
2018-11-26T01:50:36.568Z,77.16
2018-11-26T01:53:05.059Z,76.86
2018-11-26T01:55:32.859Z,76.98
2018-11-26T01:58:01.096Z,76.65
2018-11-26T02:00:28.388Z,76.96
2018-11-26T02:02:55.597Z,76.82
2018-11-26T02:05:22.863Z,77.33
2018-11-26T02:07:50.854Z,77.14
2018-11-26T02:10:19.093Z,77.37
2018-11-26T02:12:46.299Z,77.42
2018-11-26T02:15:24.970Z,77.78
2018-11-26T02:17:52.157Z,76.96
2018-11-26T02:20:19.858Z,77.36
2018-11-26T02:22:47.337Z,76.94
2018-11-26T02:25:14.567Z,76.78
2018-11-26T02:27:41.744Z,76.72
2018-11-26T02:30:08.894Z,76.22
2018-11-26T02:32:36.142Z,76.34
2018-11-26T02:35:03.630Z,76.61
2018-11-26T02:37:31.540Z,76.83
2018-11-26T02:39:58.704Z,76.40
2018-11-26T02:42:25.915Z,76.56
2018-11-26T02:44:53.090Z,76.47
2018-11-26T02:47:20.278Z,76.37
2018-11-26T02:49:47.470Z,76.43
2018-11-26T02:52:14.642Z,76.47
2018-11-26T02:54:42.024Z,77.04
2018-11-26T02:57:09.178Z,76.27
2018-11-26T02:59:36.489Z,76.58
2018-11-26T03:02:03.682Z,76.89
2018-11-26T03:04:30.883Z,76.83
2018-11-26T03:06:58.070Z,78.14
2018-11-26T03:09:25.394Z,77.99
2018-11-26T03:11:52.664Z,77.74
2018-11-26T03:14:19.847Z,78.21
2018-11-26T03:16:47.038Z,78.40
2018-11-26T03:19:14.274Z,78.25
2018-11-26T03:21:41.469Z,78.19
2018-11-26T03:24:08.638Z,77.83
2018-11-26T03:26:35.766Z,78.16
2018-11-26T03:29:02.974Z,78.13
2018-11-26T03:31:30.191Z,78.12
2018-11-26T03:33:57.304Z,77.77
2018-11-26T03:36:24.474Z,77.66
2018-11-26T03:38:53.769Z,78.39
2018-11-26T03:41:21.501Z,78.24
2018-11-26T03:43:48.685Z,77.75
2018-11-26T03:46:16.610Z,77.47
2018-11-26T03:48:44.494Z,77.16
2018-11-26T03:51:11.674Z,77.08
2018-11-26T03:53:38.824Z,77.25
2018-11-26T03:56:06.482Z,76.62
2018-11-26T03:58:33.671Z,76.91
2018-11-26T04:01:01.000Z,77.19
2018-11-26T04:03:28.212Z,76.66
2018-11-26T04:05:55.405Z,76.50
2018-11-26T04:08:22.622Z,76.34
2018-11-26T04:10:49.765Z,75.97
2018-11-26T04:13:17.730Z,75.58
2018-11-26T04:15:44.902Z,76.11
2018-11-26T04:18:12.095Z,76.34
2018-11-26T04:20:39.292Z,76.13
2018-11-26T04:23:06.476Z,76.17
2018-11-26T04:25:33.726Z,76.05
2018-11-26T04:28:00.877Z,76.02
2018-11-26T04:30:28.091Z,75.75
2018-11-26T04:32:55.383Z,75.68
2018-11-26T04:35:22.537Z,75.43
2018-11-26T04:37:49.799Z,75.53
2018-11-26T04:40:17.007Z,75.26
2018-11-26T04:42:44.253Z,75.45
2018-11-26T04:45:11.522Z,75.07
2018-11-26T04:47:39.010Z,74.63
2018-11-26T04:50:09.024Z,75.75
2018-11-26T04:52:36.354Z,76.02
2018-11-26T04:55:03.560Z,76.63
2018-11-26T04:57:30.858Z,76.23
2018-11-26T04:59:58.067Z,76.42
2018-11-26T05:02:25.362Z,76.06
2018-11-26T05:04:52.519Z,75.82
2018-11-26T05:07:19.747Z,75.51
2018-11-26T05:09:46.920Z,76.13
2018-11-26T05:12:14.143Z,76.74
2018-11-26T05:14:41.272Z,76.55
2018-11-26T05:17:08.445Z,76.60
2018-11-26T05:19:35.638Z,75.63
2018-11-26T05:22:02.791Z,75.16
2018-11-26T05:24:29.939Z,75.57
2018-11-26T05:26:57.093Z,75.05
2018-11-26T05:29:24.238Z,75.29
2018-11-26T05:31:51.405Z,75.58
2018-11-26T05:34:18.619Z,75.05
2018-11-26T05:36:45.722Z,75.48
2018-11-26T05:39:12.946Z,75.35
2018-11-26T05:41:40.154Z,75.07
2018-11-26T05:44:07.343Z,75.04
2018-11-26T05:46:35.424Z,74.50
2018-11-26T05:49:02.644Z,74.64
2018-11-26T05:51:29.897Z,74.59
2018-11-26T05:53:57.160Z,74.85
2018-11-26T05:56:24.406Z,74.85
2018-11-26T05:58:51.547Z,75.48
2018-11-26T06:01:18.729Z,75.21
2018-11-26T06:03:45.990Z,74.61
2018-11-26T06:06:13.343Z,74.69
2018-11-26T06:08:40.668Z,74.74
2018-11-26T06:11:08.048Z,74.52
2018-11-26T06:13:35.498Z,73.70
2018-11-26T06:16:02.681Z,73.74
2018-11-26T06:18:29.900Z,73.98
2018-11-26T06:20:57.134Z,73.58
2018-11-26T06:23:24.319Z,73.66
2018-11-26T06:25:51.796Z,73.37
2018-11-26T06:28:19.096Z,73.40
2018-11-26T06:30:46.342Z,72.64
2018-11-26T06:33:13.695Z,73.22
2018-11-26T06:35:40.980Z,72.94
2018-11-26T06:38:08.228Z,72.89
2018-11-26T06:40:35.503Z,72.53
2018-11-26T06:43:02.969Z,72.17
2018-11-26T06:45:30.294Z,71.54
2018-11-26T06:47:57.547Z,71.68
2018-11-26T06:50:24.865Z,71.40
2018-11-26T06:52:52.565Z,71.79
2018-11-26T06:55:20.399Z,71.99
2018-11-26T06:57:47.778Z,71.25
2018-11-26T07:00:16.438Z,71.28
2018-11-26T07:02:43.690Z,71.14
2018-11-26T07:05:15.776Z,70.88
2018-11-26T07:07:44.049Z,71.09
2018-11-26T07:10:13.067Z,70.98
2018-11-26T07:12:40.384Z,70.84
2018-11-26T07:15:14.109Z,71.28
2018-11-26T07:17:41.539Z,71.40
2018-11-26T07:20:12.071Z,70.91
2018-11-26T07:22:39.627Z,71.10
2018-11-26T07:25:09.173Z,70.96
2018-11-26T07:27:36.750Z,70.69
2018-11-26T07:30:06.791Z,70.54
2018-11-26T07:32:33.990Z,70.38
2018-11-26T07:35:01.236Z,70.73
2018-11-26T07:37:28.632Z,70.57
2018-11-26T07:39:56.804Z,70.44
2018-11-26T07:42:24.097Z,70.28
2018-11-26T07:44:51.382Z,70.66
2018-11-26T07:47:18.729Z,70.25
2018-11-26T07:49:46.856Z,70.58
2018-11-26T07:52:14.046Z,70.64
2018-11-26T07:54:42.051Z,70.64
2018-11-26T07:57:09.448Z,71.27
2018-11-26T07:59:36.722Z,71.13
2018-11-26T08:02:04.539Z,70.66
2018-11-26T08:04:31.863Z,70.55
2018-11-26T08:06:59.119Z,70.40
2018-11-26T08:09:26.464Z,70.45
2018-11-26T08:11:53.779Z,69.64
2018-11-26T08:14:21.441Z,69.92
2018-11-26T08:16:48.937Z,69.63
2018-11-26T08:19:17.030Z,69.37
2018-11-26T08:21:44.311Z,69.51
2018-11-26T08:24:11.745Z,69.55
2018-11-26T08:26:39.132Z,69.75
2018-11-26T08:29:06.441Z,69.99
2018-11-26T08:31:34.345Z,69.94
2018-11-26T08:34:01.512Z,69.64
2018-11-26T08:36:38.245Z,69.50
2018-11-26T08:39:10.502Z,69.30
2018-11-26T08:41:42.362Z,68.92
2018-11-26T08:44:11.586Z,69.08
2018-11-26T08:46:44.462Z,68.62
2018-11-26T08:49:16.627Z,68.79
2018-11-26T08:51:43.882Z,69.07
2018-11-26T08:54:11.418Z,68.63
2018-11-26T08:56:39.369Z,68.02
2018-11-26T08:59:06.729Z,67.82
2018-11-26T09:01:39.511Z,67.58
2018-11-26T09:04:09.703Z,67.23
2018-11-26T09:06:37.470Z,67.52
2018-11-26T09:09:08.147Z,67.29
2018-11-26T09:11:35.630Z,67.01
2018-11-26T09:14:03.270Z,67.04
2018-11-26T09:16:30.474Z,66.99
2018-11-26T09:18:57.910Z,67.27
2018-11-26T09:21:25.100Z,67.21
2018-11-26T09:23:52.560Z,66.57
2018-11-26T09:26:19.892Z,66.64
2018-11-26T09:28:47.201Z,66.80
2018-11-26T09:31:14.370Z,66.68
2018-11-26T09:33:42.277Z,67.33
2018-11-26T09:36:09.626Z,67.08
2018-11-26T09:38:37.000Z,67.01
2018-11-26T09:41:04.428Z,67.15
2018-11-26T09:43:31.708Z,67.45
2018-11-26T09:45:59.247Z,67.43
2018-11-26T09:48:26.554Z,67.51
2018-11-26T09:50:53.823Z,67.10
2018-11-26T09:53:21.918Z,67.34
2018-11-26T09:55:49.293Z,67.40
2018-11-26T09:58:16.712Z,67.81
2018-11-26T10:00:44.121Z,68.10
2018-11-26T10:03:11.550Z,68.69
2018-11-26T10:05:38.868Z,69.30
2018-11-26T10:08:06.138Z,69.41
2018-11-26T10:10:33.503Z,69.54
2018-11-26T10:13:00.988Z,69.21
2018-11-26T10:15:34.856Z,69.78
2018-11-26T10:18:02.275Z,69.83
2018-11-26T10:20:29.577Z,70.23
2018-11-26T10:22:57.695Z,70.39
2018-11-26T10:25:25.125Z,70.75
2018-11-26T10:27:52.999Z,71.16
2018-11-26T10:30:23.238Z,70.71
2018-11-26T10:32:50.625Z,70.00
2018-11-26T10:35:19.401Z,70.51
2018-11-26T10:37:47.317Z,70.54
2018-11-26T10:40:21.516Z,70.86
2018-11-26T10:42:49.009Z,70.13
2018-11-26T10:45:18.359Z,70.08
2018-11-26T10:47:45.691Z,70.95
2018-11-26T10:50:14.150Z,70.63
2018-11-26T10:52:42.836Z,70.53
2018-11-26T10:55:11.997Z,69.62
2018-11-26T10:57:40.407Z,70.41
2018-11-26T11:00:17.284Z,69.82
2018-11-26T11:02:45.760Z,69.17
2018-11-26T11:05:13.116Z,69.01
2018-11-26T11:07:48.733Z,69.69
2018-11-26T11:10:32.677Z,69.98
2018-11-26T11:13:01.365Z,69.71
2018-11-26T11:15:32.100Z,69.72
2018-11-26T11:17:59.432Z,69.99
2018-11-26T11:20:28.785Z,69.69
2018-11-26T11:22:56.155Z,69.56
2018-11-26T11:25:24.008Z,69.23
2018-11-26T11:27:51.564Z,69.49
2018-11-26T11:30:20.901Z,69.38
2018-11-26T11:32:48.280Z,68.96
2018-11-26T11:35:16.054Z,69.22
2018-11-26T11:37:44.235Z,69.04
2018-11-26T11:40:14.900Z,68.93
2018-11-26T11:42:42.896Z,68.87
2018-11-26T11:45:11.635Z,68.90
2018-11-26T11:47:39.692Z,68.44
2018-11-26T11:50:08.795Z,69.06
2018-11-26T11:52:36.169Z,68.85
2018-11-26T11:55:03.988Z,69.18
2018-11-26T11:57:32.034Z,69.19
2018-11-26T11:59:59.381Z,69.47
2018-11-26T12:02:26.757Z,70.11
2018-11-26T12:04:54.752Z,70.50
2018-11-26T12:07:23.896Z,70.40
2018-11-26T12:09:51.325Z,70.65
2018-11-26T12:12:18.637Z,70.74
2018-11-26T12:14:46.660Z,70.76
2018-11-26T12:17:14.402Z,70.42
2018-11-26T12:19:41.885Z,70.34
2018-11-26T12:22:09.202Z,70.39
2018-11-26T12:24:36.667Z,69.93
2018-11-26T12:27:05.085Z,70.36
2018-11-26T12:29:33.826Z,70.43
2018-11-26T12:32:01.181Z,70.30
2018-11-26T12:34:28.586Z,70.04
2018-11-26T12:36:57.890Z,70.09
2018-11-26T12:39:23.291Z,69.85
2018-11-26T12:41:50.615Z,69.82
2018-11-26T12:44:17.853Z,69.85
2018-11-26T12:46:45.235Z,69.68
2018-11-26T12:49:12.522Z,69.46
2018-11-26T12:51:39.848Z,69.63
2018-11-26T12:54:07.140Z,69.66
2018-11-26T12:56:34.533Z,70.00
2018-11-26T12:59:01.786Z,69.22
2018-11-26T13:01:29.095Z,68.91
2018-11-26T13:03:56.455Z,69.32
2018-11-26T13:06:23.914Z,69.53
2018-11-26T13:08:51.426Z,69.50
2018-11-26T13:11:18.665Z,69.40
2018-11-26T13:13:46.045Z,69.26
2018-11-26T13:16:13.368Z,69.10
2018-11-26T13:18:41.755Z,69.46
2018-11-26T13:21:09.150Z,69.35
2018-11-26T13:23:36.473Z,69.61
2018-11-26T13:26:04.556Z,69.46
2018-11-26T13:28:32.025Z,69.38
2018-11-26T13:30:59.431Z,69.75
2018-11-26T13:33:27.729Z,69.70
2018-11-26T13:35:55.076Z,69.68
2018-11-26T13:38:23.127Z,69.83
2018-11-26T13:40:50.553Z,69.64
2018-11-26T13:43:17.799Z,69.50
2018-11-26T13:45:46.991Z,69.34
2018-11-26T13:48:16.322Z,69.67
2018-11-26T13:50:49.074Z,69.83
2018-11-26T13:53:16.726Z,70.02
2018-11-26T13:55:44.212Z,69.98
2018-11-26T13:58:11.800Z,69.70
2018-11-26T14:00:40.421Z,69.84
2018-11-26T14:03:07.810Z,70.02
2018-11-26T14:05:35.300Z,69.59
2018-11-26T14:08:02.913Z,70.12
2018-11-26T14:10:31.172Z,69.75
2018-11-26T14:13:08.147Z,70.30
2018-11-26T14:15:35.692Z,70.26
2018-11-26T14:18:03.034Z,70.06
2018-11-26T14:20:31.106Z,70.34
2018-11-26T14:22:58.618Z,69.86
2018-11-26T14:25:26.080Z,69.83
2018-11-26T14:27:53.607Z,69.82
2018-11-26T14:30:23.229Z,69.68
2018-11-26T14:32:50.660Z,69.71
2018-11-26T14:35:18.354Z,70.12
2018-11-26T14:37:50.083Z,69.95
2018-11-26T14:40:19.919Z,70.33
2018-11-26T14:42:47.651Z,70.35
2018-11-26T14:45:14.803Z,70.15
2018-11-26T14:47:42.582Z,69.93
2018-11-26T14:50:12.111Z,70.14
2018-11-26T14:52:39.672Z,70.15
2018-11-26T14:55:11.997Z,69.72
2018-11-26T14:57:39.269Z,69.80
2018-11-26T15:00:12.856Z,69.76
2018-11-26T15:02:40.204Z,69.84
2018-11-26T15:05:07.668Z,69.74
2018-11-26T15:07:34.923Z,69.85
2018-11-26T15:10:04.448Z,69.54
2018-11-26T15:12:32.010Z,69.52
2018-11-26T15:14:59.238Z,69.90
2018-11-26T15:17:26.621Z,69.90
2018-11-26T15:19:53.824Z,70.04
2018-11-26T15:22:21.111Z,69.80
2018-11-26T15:24:49.456Z,70.01
2018-11-26T15:27:16.809Z,69.90
2018-11-26T15:29:44.078Z,69.84
2018-11-26T15:32:11.356Z,70.09
2018-11-26T15:34:38.763Z,69.94
2018-11-26T15:37:05.977Z,70.59
2018-11-26T15:39:33.238Z,70.39
2018-11-26T15:42:01.594Z,70.70
2018-11-26T15:44:28.949Z,71.39
2018-11-26T15:46:56.404Z,72.02
2018-11-26T15:49:24.253Z,72.67
2018-11-26T15:51:52.760Z,72.27
2018-11-26T15:54:20.167Z,73.15
2018-11-26T15:56:47.365Z,73.43
2018-11-26T15:59:14.607Z,73.56
2018-11-26T16:01:41.939Z,74.09
2018-11-26T16:04:09.960Z,74.05
2018-11-26T16:06:38.418Z,74.07
2018-11-26T16:09:08.650Z,74.43
2018-11-26T16:11:36.510Z,74.31
2018-11-26T16:14:03.773Z,74.41
2018-11-26T16:16:31.168Z,75.00
2018-11-26T16:18:59.166Z,74.59
2018-11-26T16:21:26.407Z,74.84
2018-11-26T16:23:53.930Z,74.60
2018-11-26T16:26:21.164Z,75.03
2018-11-26T16:28:48.874Z,75.68
2018-11-26T16:31:16.372Z,75.18
2018-11-26T16:33:43.894Z,74.90
2018-11-26T16:36:11.384Z,74.77
2018-11-26T16:38:39.164Z,74.91
2018-11-26T16:41:06.425Z,74.81
2018-11-26T16:43:33.938Z,74.99
2018-11-26T16:46:01.277Z,75.85
2018-11-26T16:48:28.756Z,75.48
2018-11-26T16:50:56.043Z,75.04
2018-11-26T16:53:23.395Z,75.29
2018-11-26T16:55:51.152Z,75.43
2018-11-26T16:58:18.718Z,75.27
2018-11-26T17:00:46.674Z,75.41
2018-11-26T17:03:14.013Z,76.14
2018-11-26T17:05:41.868Z,75.85
2018-11-26T17:08:11.343Z,75.79
2018-11-26T17:10:39.810Z,76.36
2018-11-26T17:13:08.134Z,75.98
2018-11-26T17:15:36.585Z,76.47
2018-11-26T17:18:04.371Z,76.18
2018-11-26T17:20:31.924Z,75.68
2018-11-26T17:22:59.246Z,75.83
2018-11-26T17:25:26.671Z,76.30
2018-11-26T17:27:54.151Z,76.29
2018-11-26T17:30:23.288Z,76.03
2018-11-26T17:32:52.126Z,75.39
2018-11-26T17:35:19.660Z,75.72
2018-11-26T17:37:47.014Z,75.67
2018-11-26T17:40:17.754Z,75.58
2018-11-26T17:42:45.150Z,75.30
2018-11-26T17:45:13.418Z,75.66
2018-11-26T17:47:42.299Z,75.62
2018-11-26T17:50:18.171Z,75.85
2018-11-26T17:52:45.822Z,76.10
2018-11-26T17:55:13.407Z,76.04
2018-11-26T17:57:41.356Z,75.94
2018-11-26T18:00:17.271Z,75.88
2018-11-26T18:02:45.489Z,76.24
2018-11-26T18:05:14.493Z,75.98
2018-11-26T18:07:42.701Z,75.71
2018-11-26T18:10:11.879Z,76.15
2018-11-26T18:12:39.335Z,76.24
2018-11-26T18:15:10.049Z,75.82
2018-11-26T18:17:37.419Z,75.85
2018-11-26T18:20:08.788Z,75.77
2018-11-26T18:22:36.099Z,75.97
2018-11-26T18:25:03.521Z,76.17
2018-11-26T18:27:31.007Z,75.99
2018-11-26T18:29:58.267Z,76.51
2018-11-26T18:32:25.505Z,76.60
2018-11-26T18:34:52.812Z,76.57
2018-11-26T18:37:20.131Z,76.72
2018-11-26T18:39:47.505Z,76.25
2018-11-26T18:42:15.003Z,76.28
2018-11-26T18:44:42.907Z,76.23
2018-11-26T18:47:10.197Z,76.49
2018-11-26T18:49:38.223Z,76.08
2018-11-26T18:52:05.683Z,76.11
2018-11-26T18:54:32.981Z,76.25
2018-11-26T18:57:00.245Z,76.70
2018-11-26T18:59:27.493Z,76.88
2018-11-26T19:01:54.762Z,76.52
2018-11-26T19:04:22.145Z,76.77
2018-11-26T19:06:50.261Z,76.53
2018-11-26T19:09:17.824Z,76.76
2018-11-26T19:11:45.081Z,77.04
2018-11-26T19:14:14.528Z,77.24
2018-11-26T19:16:46.538Z,77.48
2018-11-26T19:19:14.055Z,77.14
2018-11-26T19:21:41.260Z,77.39
2018-11-26T19:24:08.502Z,77.86
2018-11-26T19:26:35.958Z,77.23
2018-11-26T19:29:03.522Z,77.62
2018-11-26T19:31:30.756Z,77.33
2018-11-26T19:33:59.214Z,77.41
2018-11-26T19:36:26.514Z,77.29
2018-11-26T19:38:54.159Z,77.19
2018-11-26T19:41:21.522Z,76.86
2018-11-26T19:43:48.992Z,77.04
2018-11-26T19:46:16.548Z,77.38
2018-11-26T19:48:43.901Z,77.23
2018-11-26T19:51:11.352Z,77.06
2018-11-26T19:53:38.823Z,77.08
2018-11-26T19:56:06.063Z,76.74
2018-11-26T19:58:33.446Z,76.52
2018-11-26T20:01:00.938Z,76.78
2018-11-26T20:03:32.265Z,76.78
2018-11-26T20:06:13.017Z,76.51
2018-11-26T20:08:41.172Z,76.12
2018-11-26T20:11:08.707Z,76.25
2018-11-26T20:13:36.193Z,76.60
2018-11-26T20:16:04.234Z,76.38
2018-11-26T20:18:32.130Z,76.61
2018-11-26T20:20:59.381Z,76.65
2018-11-26T20:23:26.711Z,77.11
2018-11-26T20:25:54.110Z,77.45
2018-11-26T20:28:22.096Z,77.79
2018-11-26T20:30:49.486Z,77.88
2018-11-26T20:33:17.185Z,77.45
2018-11-26T20:35:44.784Z,77.23
2018-11-26T20:38:13.944Z,77.40
2018-11-26T20:40:42.046Z,77.44
2018-11-26T20:43:10.373Z,77.14
2018-11-26T20:45:38.976Z,77.84
2018-11-26T20:48:07.062Z,77.47
2018-11-26T20:50:34.599Z,77.45
2018-11-26T20:53:02.089Z,77.85
2018-11-26T20:55:31.640Z,77.90
2018-11-26T20:57:58.907Z,78.55
2018-11-26T21:00:27.496Z,79.12
2018-11-26T21:03:02.742Z,79.41
2018-11-26T21:05:30.072Z,79.07
2018-11-26T21:07:57.760Z,78.41
2018-11-26T21:10:25.178Z,78.86
2018-11-26T21:12:52.795Z,79.02
2018-11-26T21:15:21.188Z,78.60
2018-11-26T21:17:55.666Z,78.61
2018-11-26T21:20:25.054Z,78.10
2018-11-26T21:22:52.620Z,78.56
2018-11-26T21:25:20.038Z,79.61
2018-11-26T21:27:47.532Z,80.54
2018-11-26T21:30:16.463Z,79.60
2018-11-26T21:32:44.799Z,78.81
2018-11-26T21:35:13.350Z,79.62
2018-11-26T21:37:41.783Z,79.61
2018-11-26T21:40:11.321Z,79.72
2018-11-26T21:42:38.573Z,79.54
2018-11-26T21:45:10.636Z,79.79
2018-11-26T21:47:38.220Z,79.53
2018-11-26T21:50:08.178Z,79.74
2018-11-26T21:52:35.528Z,79.18
2018-11-26T21:55:02.974Z,79.36
2018-11-26T21:57:30.655Z,79.34
2018-11-26T21:59:58.375Z,78.65
2018-11-26T22:02:25.814Z,78.96
2018-11-26T22:04:53.215Z,78.80
2018-11-26T22:07:20.615Z,79.45
2018-11-26T22:09:48.257Z,79.26
2018-11-26T22:12:15.746Z,79.58
2018-11-26T22:14:43.304Z,79.89
2018-11-26T22:17:11.308Z,79.34
2018-11-26T22:19:38.798Z,79.38
2018-11-26T22:22:06.214Z,79.73
2018-11-26T22:24:33.637Z,80.01
2018-11-26T22:27:00.932Z,80.54
2018-11-26T22:29:28.594Z,80.89
2018-11-26T22:31:55.968Z,80.70
2018-11-26T22:34:23.377Z,80.21
2018-11-26T22:36:50.811Z,80.80
2018-11-26T22:39:24.831Z,80.32
2018-11-26T22:41:52.202Z,80.51
2018-11-26T22:44:19.528Z,80.21
2018-11-26T22:46:46.697Z,80.25
2018-11-26T22:49:13.883Z,79.63
2018-11-26T22:51:41.159Z,79.62
2018-11-26T22:54:08.478Z,78.92
2018-11-26T22:56:35.736Z,79.22
2018-11-26T22:59:03.240Z,79.00
2018-11-26T23:01:30.563Z,78.67
2018-11-26T23:03:57.775Z,78.14
2018-11-26T23:06:25.028Z,78.22
2018-11-26T23:08:52.929Z,78.91
2018-11-26T23:11:20.431Z,78.78
2018-11-26T23:13:47.703Z,79.11
2018-11-26T23:16:15.093Z,77.80
2018-11-26T23:18:47.667Z,78.22
2018-11-26T23:21:16.142Z,78.65
2018-11-26T23:23:49.235Z,78.55
2018-11-26T23:26:18.441Z,78.85
2018-11-26T23:28:45.689Z,77.92
2018-11-26T23:31:12.967Z,77.88
2018-11-26T23:33:40.255Z,78.12
2018-11-26T23:36:08.431Z,78.23
2018-11-26T23:38:35.805Z,78.86
2018-11-26T23:41:03.149Z,79.01
2018-11-26T23:43:31.032Z,79.42
2018-11-26T23:45:58.286Z,79.54
2018-11-26T23:48:25.605Z,79.55
2018-11-26T23:50:52.963Z,78.77
2018-11-26T23:53:20.349Z,78.20
2018-11-26T23:55:47.898Z,78.48
2018-11-26T23:58:15.798Z,79.25
